createdAt,value
2022-11-19T00:00:58.462Z,7.262268066
2022-11-19T00:01:59.023Z,7.191772461
2022-11-19T00:02:59.526Z,7.18170166
2022-11-19T00:04:00.964Z,7.18170166
2022-11-19T00:05:01.567Z,7.151489258
2022-11-19T00:06:02.163Z,7.141418457
2022-11-19T00:07:02.917Z,7.121276855
2022-11-19T00:08:04.174Z,7.121276855
2022-11-19T00:09:04.780Z,7.091064453
2022-11-19T00:10:05.346Z,7.080993652
2022-11-19T00:11:09.455Z,7.121276855
2022-11-19T00:12:07.728Z,7.121276855
2022-11-19T00:13:08.105Z,7.080993652
2022-11-19T00:14:39.704Z,7.040710449
2022-11-19T00:15:40.268Z,7.040710449
2022-11-19T00:16:40.928Z,7.040710449
2022-11-19T00:17:41.612Z,7.05078125
2022-11-19T00:18:42.194Z,7.05078125
2022-11-19T00:19:42.732Z,7.05078125
2022-11-19T00:20:43.246Z,7.010498047
2022-11-19T00:21:43.776Z,7.000427246
2022-11-19T00:22:45.129Z,6.970214844
2022-11-19T00:23:46.666Z,6.929931641
2022-11-19T00:24:47.179Z,6.940002441
2022-11-19T00:25:47.765Z,6.960144043
2022-11-19T00:26:48.388Z,6.940002441
2022-11-19T00:27:49.050Z,6.929931641
2022-11-19T00:28:49.687Z,6.899719238
2022-11-19T00:29:50.282Z,6.889648438
2022-11-19T00:30:50.887Z,6.899719238
2022-11-19T00:31:51.530Z,6.889648438
2022-11-19T00:32:52.518Z,6.889648438
2022-11-19T00:33:54.241Z,6.909790039
2022-11-19T00:34:54.863Z,6.899719238
2022-11-19T00:35:55.589Z,6.929931641
2022-11-19T00:36:56.107Z,6.929931641
2022-11-19T00:37:57.682Z,6.940002441
2022-11-19T00:38:58.180Z,6.909790039
2022-11-19T00:39:58.756Z,6.909790039
2022-11-19T00:40:59.427Z,6.899719238
2022-11-19T00:41:59.965Z,6.899719238
2022-11-19T00:43:01.133Z,6.899719238
2022-11-19T00:44:02.402Z,6.929931641
2022-11-19T00:45:03.159Z,6.960144043
2022-11-19T00:46:03.802Z,6.940002441
2022-11-19T00:47:04.612Z,6.909790039
2022-11-19T00:48:06.273Z,6.909790039
2022-11-19T00:49:07.109Z,6.909790039
2022-11-19T00:50:07.792Z,6.869506836
2022-11-19T00:51:38.614Z,6.859436035
2022-11-19T00:52:39.334Z,6.869506836
2022-11-19T00:53:40.630Z,6.819152832
2022-11-19T00:54:41.301Z,6.809082031
2022-11-19T00:55:41.913Z,6.758728027
2022-11-19T00:56:42.510Z,6.758728027
2022-11-19T00:57:43.661Z,6.758728027
2022-11-19T00:58:44.297Z,6.728515625
2022-11-19T00:59:45.058Z,6.748657227
2022-11-19T01:00:45.822Z,6.728515625
2022-11-19T01:01:46.368Z,6.728515625
2022-11-19T01:02:46.983Z,6.78894043
2022-11-19T01:03:48.181Z,6.778869629
2022-11-19T01:04:48.748Z,6.728515625
2022-11-19T01:05:49.361Z,6.728515625
2022-11-19T01:06:49.951Z,6.688232422
2022-11-19T01:07:50.662Z,6.688232422
2022-11-19T01:08:51.474Z,6.688232422
2022-11-19T01:09:52.368Z,6.678161621
2022-11-19T01:10:53.050Z,6.678161621
2022-11-19T01:11:53.654Z,6.637878418
2022-11-19T01:12:54.294Z,6.607666016
2022-11-19T01:13:55.544Z,6.607666016
2022-11-19T01:14:57.003Z,6.597595215
2022-11-19T01:15:57.687Z,6.567382813
2022-11-19T01:16:58.573Z,6.597595215
2022-11-19T01:17:59.200Z,6.607666016
2022-11-19T01:18:59.824Z,6.607666016
2022-11-19T01:20:00.586Z,6.607666016
2022-11-19T01:21:01.139Z,6.597595215
2022-11-19T01:22:01.743Z,6.607666016
2022-11-19T01:23:02.312Z,6.637878418
2022-11-19T01:24:03.762Z,6.607666016
2022-11-19T01:25:04.460Z,6.637878418
2022-11-19T01:26:05.191Z,6.637878418
2022-11-19T01:27:05.956Z,6.627807617
2022-11-19T01:28:06.630Z,6.607666016
2022-11-19T01:29:07.195Z,6.607666016
2022-11-19T01:30:38.220Z,6.607666016
2022-11-19T01:31:38.843Z,6.607666016
2022-11-19T01:32:39.488Z,6.597595215
2022-11-19T01:33:40.139Z,6.567382813
2022-11-19T01:34:41.427Z,6.567382813
2022-11-19T01:35:41.963Z,6.597595215
2022-11-19T01:36:42.636Z,6.607666016
2022-11-19T01:37:43.199Z,6.627807617
2022-11-19T01:38:43.747Z,6.567382813
2022-11-19T01:39:44.338Z,6.53717041
2022-11-19T01:40:44.860Z,6.53717041
2022-11-19T01:41:45.473Z,6.527099609
2022-11-19T01:42:46.118Z,6.496887207
2022-11-19T01:43:47.647Z,6.476745605
2022-11-19T01:44:49.006Z,6.476745605
2022-11-19T01:45:49.555Z,6.506958008
2022-11-19T01:46:50.081Z,6.476745605
2022-11-19T01:47:50.616Z,6.476745605
2022-11-19T01:48:51.262Z,6.476745605
2022-11-19T01:49:52.068Z,6.446533203
2022-11-19T01:50:52.584Z,6.416320801
2022-11-19T01:51:53.123Z,6.416320801
2022-11-19T01:52:53.680Z,6.416320801
2022-11-19T01:53:55.284Z,6.426391602
2022-11-19T01:54:55.871Z,6.396179199
2022-11-19T01:55:56.495Z,6.396179199
2022-11-19T01:56:57.072Z,6.416320801
2022-11-19T01:57:57.615Z,6.446533203
2022-11-19T01:58:58.923Z,6.456604004
2022-11-19T01:59:59.608Z,6.456604004
2022-11-19T02:01:00.377Z,6.426391602
2022-11-19T02:02:00.997Z,6.446533203
2022-11-19T02:03:01.613Z,6.456604004
2022-11-19T02:04:03.147Z,6.446533203
2022-11-19T02:05:03.897Z,6.456604004
2022-11-19T02:06:04.599Z,6.476745605
2022-11-19T02:07:05.302Z,6.496887207
2022-11-19T02:08:05.946Z,6.53717041
2022-11-19T02:09:06.440Z,6.567382813
2022-11-19T02:10:37.653Z,6.527099609
2022-11-19T02:11:38.214Z,6.53717041
2022-11-19T02:12:39.054Z,6.476745605
2022-11-19T02:13:40.724Z,6.446533203
2022-11-19T02:14:42.172Z,6.416320801
2022-11-19T02:15:42.780Z,6.386108398
2022-11-19T02:16:43.692Z,6.386108398
2022-11-19T02:17:44.326Z,6.416320801
2022-11-19T02:18:45.041Z,6.476745605
2022-11-19T02:19:45.733Z,6.496887207
2022-11-19T02:20:46.407Z,6.456604004
2022-11-19T02:21:46.898Z,6.426391602
2022-11-19T02:22:47.494Z,6.426391602
2022-11-19T02:23:48.116Z,6.416320801
2022-11-19T02:24:49.532Z,6.446533203
2022-11-19T02:25:50.164Z,6.426391602
2022-11-19T02:26:50.658Z,6.446533203
2022-11-19T02:27:52.431Z,6.456604004
2022-11-19T02:28:53.173Z,6.456604004
2022-11-19T02:29:53.833Z,6.496887207
2022-11-19T02:30:54.603Z,6.496887207
2022-11-19T02:31:55.153Z,6.476745605
2022-11-19T02:32:55.853Z,6.416320801
2022-11-19T02:33:56.491Z,6.416320801
2022-11-19T02:34:58.105Z,6.446533203
2022-11-19T02:35:58.708Z,6.496887207
2022-11-19T02:36:59.374Z,6.496887207
2022-11-19T02:37:59.895Z,6.476745605
2022-11-19T02:39:00.468Z,6.496887207
2022-11-19T02:40:01.767Z,6.506958008
2022-11-19T02:41:02.546Z,6.547241211
2022-11-19T02:42:03.123Z,6.567382813
2022-11-19T02:43:03.713Z,6.567382813
2022-11-19T02:44:05.307Z,6.567382813
2022-11-19T02:45:06.637Z,6.597595215
2022-11-19T02:46:37.564Z,6.637878418
2022-11-19T02:47:38.186Z,6.647949219
2022-11-19T02:48:38.867Z,6.647949219
2022-11-19T02:49:39.418Z,6.647949219
2022-11-19T02:50:40.121Z,6.678161621
2022-11-19T02:51:40.807Z,6.718444824
2022-11-19T02:52:42.009Z,6.748657227
2022-11-19T02:53:42.729Z,6.748657227
2022-11-19T02:54:43.311Z,6.778869629
2022-11-19T02:55:43.883Z,6.809082031
2022-11-19T02:56:45.439Z,6.809082031
2022-11-19T02:57:46.303Z,6.819152832
2022-11-19T02:58:47.146Z,6.829223633
2022-11-19T02:59:48.011Z,6.869506836
2022-11-19T03:00:48.603Z,6.889648438
2022-11-19T03:01:49.143Z,6.869506836
2022-11-19T03:02:49.613Z,6.899719238
2022-11-19T03:03:50.481Z,6.889648438
2022-11-19T03:04:52.533Z,6.899719238
2022-11-19T03:05:53.338Z,6.899719238
2022-11-19T03:06:54.150Z,6.909790039
2022-11-19T03:07:55.246Z,6.909790039
2022-11-19T03:08:56.027Z,6.960144043
2022-11-19T03:09:56.918Z,6.940002441
2022-11-19T03:10:57.697Z,6.929931641
2022-11-19T03:11:58.473Z,6.929931641
2022-11-19T03:12:59.079Z,6.909790039
2022-11-19T03:13:59.711Z,6.899719238
2022-11-19T03:15:01.157Z,6.889648438
2022-11-19T03:16:02.049Z,6.889648438
2022-11-19T03:17:03.671Z,6.869506836
2022-11-19T03:18:04.203Z,6.819152832
2022-11-19T03:19:04.828Z,6.748657227
2022-11-19T03:20:05.644Z,6.637878418
2022-11-19T03:21:37.045Z,6.627807617
2022-11-19T03:22:38.232Z,6.597595215
2022-11-19T03:23:38.752Z,6.597595215
2022-11-19T03:24:40.134Z,6.607666016
2022-11-19T03:25:40.686Z,6.627807617
2022-11-19T03:26:41.332Z,6.637878418
2022-11-19T03:27:41.916Z,6.678161621
2022-11-19T03:28:42.410Z,6.708374023
2022-11-19T03:29:42.939Z,6.718444824
2022-11-19T03:30:43.458Z,6.778869629
2022-11-19T03:31:44.056Z,6.78894043
2022-11-19T03:32:44.666Z,6.809082031
2022-11-19T03:33:45.333Z,6.859436035
2022-11-19T03:34:46.664Z,6.889648438
2022-11-19T03:35:47.156Z,6.859436035
2022-11-19T03:36:47.701Z,6.819152832
2022-11-19T03:37:48.328Z,6.809082031
2022-11-19T03:38:48.892Z,6.829223633
2022-11-19T03:39:49.496Z,6.869506836
2022-11-19T03:40:50.031Z,6.869506836
2022-11-19T03:41:50.552Z,6.859436035
2022-11-19T03:42:51.067Z,6.889648438
2022-11-19T03:43:51.619Z,6.899719238
2022-11-19T03:44:52.979Z,6.899719238
2022-11-19T03:45:54.510Z,6.929931641
2022-11-19T03:46:55.088Z,6.940002441
2022-11-19T03:47:55.683Z,6.990356445
2022-11-19T03:48:56.161Z,6.990356445
2022-11-19T03:49:56.803Z,6.990356445
2022-11-19T03:50:57.398Z,6.970214844
2022-11-19T03:51:57.924Z,6.960144043
2022-11-19T03:53:02.761Z,6.899719238
2022-11-19T03:53:58.914Z,6.889648438
2022-11-19T03:55:00.198Z,6.859436035
2022-11-19T03:56:00.717Z,6.869506836
2022-11-19T03:57:01.247Z,6.899719238
2022-11-19T03:58:01.903Z,6.899719238
2022-11-19T03:59:02.292Z,6.929931641
2022-11-19T04:00:02.788Z,6.960144043
2022-11-19T04:01:03.416Z,6.929931641
2022-11-19T04:02:03.999Z,6.909790039
2022-11-19T04:03:04.497Z,6.899719238
2022-11-19T04:04:05.005Z,6.869506836
2022-11-19T04:05:06.676Z,6.829223633
2022-11-19T04:06:37.544Z,6.758728027
2022-11-19T04:07:38.197Z,6.728515625
2022-11-19T04:08:38.691Z,6.708374023
2022-11-19T04:09:39.198Z,6.708374023
2022-11-19T04:10:39.691Z,6.728515625
2022-11-19T04:11:40.218Z,6.728515625
2022-11-19T04:12:40.817Z,6.718444824
2022-11-19T04:13:41.370Z,6.728515625
2022-11-19T04:14:42.494Z,6.728515625
2022-11-19T04:15:43.888Z,6.728515625
2022-11-19T04:16:44.413Z,6.758728027
2022-11-19T04:17:45.163Z,6.748657227
2022-11-19T04:18:46.467Z,6.718444824
2022-11-19T04:19:47.052Z,6.718444824
2022-11-19T04:20:47.595Z,6.718444824
2022-11-19T04:21:48.131Z,6.688232422
2022-11-19T04:22:48.678Z,6.678161621
2022-11-19T04:23:49.271Z,6.678161621
2022-11-19T04:24:50.678Z,6.708374023
2022-11-19T04:25:51.204Z,6.718444824
2022-11-19T04:26:51.739Z,6.718444824
2022-11-19T04:27:53.167Z,6.748657227
2022-11-19T04:28:53.726Z,6.78894043
2022-11-19T04:29:54.359Z,6.829223633
2022-11-19T04:30:54.916Z,6.859436035
2022-11-19T04:31:55.553Z,6.819152832
2022-11-19T04:32:56.095Z,6.819152832
2022-11-19T04:33:56.602Z,6.778869629
2022-11-19T04:34:57.637Z,6.748657227
2022-11-19T04:35:58.241Z,6.718444824
2022-11-19T04:36:58.873Z,6.688232422
2022-11-19T04:38:00.214Z,6.678161621
2022-11-19T04:39:00.765Z,6.637878418
2022-11-19T04:40:01.253Z,6.627807617
2022-11-19T04:41:01.837Z,6.567382813
2022-11-19T04:42:02.479Z,6.527099609
2022-11-19T04:43:03.101Z,6.496887207
2022-11-19T04:44:03.705Z,6.496887207
2022-11-19T04:45:05.154Z,6.476745605
2022-11-19T04:46:35.912Z,6.456604004
2022-11-19T04:47:36.544Z,6.476745605
2022-11-19T04:48:37.162Z,6.496887207
2022-11-19T04:49:37.672Z,6.53717041
2022-11-19T04:50:38.186Z,6.547241211
2022-11-19T04:51:38.672Z,6.577453613
2022-11-19T04:52:41.114Z,6.597595215
2022-11-19T04:53:39.804Z,6.597595215
2022-11-19T04:54:40.337Z,6.647949219
2022-11-19T04:55:41.464Z,6.688232422
2022-11-19T04:56:41.993Z,6.647949219
2022-11-19T04:57:43.142Z,6.637878418
2022-11-19T04:58:43.740Z,6.627807617
2022-11-19T04:59:44.302Z,6.597595215
2022-11-19T05:00:44.927Z,6.597595215
2022-11-19T05:01:45.592Z,6.527099609
2022-11-19T05:02:46.088Z,6.53717041
2022-11-19T05:03:46.655Z,6.496887207
2022-11-19T05:04:47.229Z,6.506958008
2022-11-19T05:05:48.417Z,6.506958008
2022-11-19T05:06:49.020Z,6.53717041
2022-11-19T05:07:49.492Z,6.547241211
2022-11-19T05:08:50.935Z,6.53717041
2022-11-19T05:09:51.408Z,6.547241211
2022-11-19T05:10:52.037Z,6.547241211
2022-11-19T05:11:52.543Z,6.567382813
2022-11-19T05:12:53.068Z,6.567382813
2022-11-19T05:13:53.644Z,6.53717041
2022-11-19T05:14:54.140Z,6.506958008
2022-11-19T05:15:55.388Z,6.496887207
2022-11-19T05:16:55.908Z,6.496887207
2022-11-19T05:17:56.399Z,6.496887207
2022-11-19T05:18:57.028Z,6.506958008
2022-11-19T05:19:57.417Z,6.506958008
2022-11-19T05:20:57.929Z,6.506958008
2022-11-19T05:21:59.141Z,6.506958008
2022-11-19T05:22:59.688Z,6.527099609
2022-11-19T05:24:00.232Z,6.53717041
2022-11-19T05:25:00.765Z,6.567382813
2022-11-19T05:26:01.894Z,6.607666016
2022-11-19T05:27:02.467Z,6.637878418
2022-11-19T05:28:02.978Z,6.627807617
2022-11-19T05:29:03.529Z,6.637878418
2022-11-19T05:30:03.988Z,6.627807617
2022-11-19T05:31:04.970Z,6.627807617
2022-11-19T05:32:35.798Z,6.597595215
2022-11-19T05:33:36.298Z,6.597595215
2022-11-19T05:34:36.812Z,6.577453613
2022-11-19T05:35:37.265Z,6.577453613
2022-11-19T05:36:38.638Z,6.577453613
2022-11-19T05:37:39.143Z,6.567382813
2022-11-19T05:38:39.666Z,6.577453613
2022-11-19T05:39:40.171Z,6.577453613
2022-11-19T05:40:40.648Z,6.607666016
2022-11-19T05:41:42.130Z,6.627807617
2022-11-19T05:42:42.639Z,6.627807617
2022-11-19T05:43:43.101Z,6.647949219
2022-11-19T05:44:43.670Z,6.678161621
2022-11-19T05:45:45.150Z,6.647949219
2022-11-19T05:46:45.691Z,6.627807617
2022-11-19T05:47:48.595Z,6.637878418
2022-11-19T05:48:47.404Z,6.637878418
2022-11-19T05:49:47.911Z,6.637878418
2022-11-19T05:50:48.429Z,6.637878418
2022-11-19T05:51:48.957Z,6.647949219
2022-11-19T05:52:49.623Z,6.688232422
2022-11-19T05:53:50.992Z,6.708374023
2022-11-19T05:54:51.425Z,6.728515625
2022-11-19T05:55:52.693Z,6.728515625
2022-11-19T05:56:53.156Z,6.728515625
2022-11-19T05:57:53.740Z,6.758728027
2022-11-19T05:58:54.879Z,6.78894043
2022-11-19T05:59:55.399Z,6.809082031
2022-11-19T06:00:55.975Z,6.819152832
2022-11-19T06:01:56.441Z,6.829223633
2022-11-19T06:02:57.051Z,6.869506836
2022-11-19T06:03:57.442Z,6.889648438
2022-11-19T06:04:57.960Z,6.899719238
2022-11-19T06:05:59.394Z,6.909790039
2022-11-19T06:07:00.914Z,6.960144043
2022-11-19T06:08:01.421Z,6.960144043
2022-11-19T06:09:01.901Z,7.000427246
2022-11-19T06:10:02.393Z,7.010498047
2022-11-19T06:11:02.885Z,7.05078125
2022-11-19T06:12:04.143Z,7.091064453
2022-11-19T06:13:34.960Z,7.111206055
2022-11-19T06:14:35.440Z,7.121276855
2022-11-19T06:15:36.633Z,7.121276855
2022-11-19T06:16:37.168Z,7.111206055
2022-11-19T06:17:37.665Z,7.080993652
2022-11-19T06:18:38.168Z,7.05078125
2022-11-19T06:19:38.636Z,7.05078125
2022-11-19T06:20:39.144Z,7.070922852
2022-11-19T06:21:39.643Z,7.080993652
2022-11-19T06:22:40.147Z,7.080993652
2022-11-19T06:23:40.658Z,7.080993652
2022-11-19T06:24:41.225Z,7.070922852
2022-11-19T06:25:42.656Z,7.080993652
2022-11-19T06:26:43.127Z,7.080993652
2022-11-19T06:27:43.627Z,7.111206055
2022-11-19T06:28:44.302Z,7.121276855
2022-11-19T06:29:44.974Z,7.141418457
2022-11-19T06:30:45.524Z,7.151489258
2022-11-19T06:31:46.057Z,7.121276855
2022-11-19T06:32:46.525Z,7.151489258
2022-11-19T06:33:47.302Z,7.18170166
2022-11-19T06:34:47.867Z,7.151489258
2022-11-19T06:35:49.221Z,7.111206055
2022-11-19T06:36:50.901Z,7.121276855
2022-11-19T06:37:50.358Z,7.111206055
2022-11-19T06:38:51.401Z,7.121276855
2022-11-19T06:39:51.899Z,7.111206055
2022-11-19T06:40:52.590Z,7.070922852
2022-11-19T06:41:53.122Z,7.05078125
2022-11-19T06:42:53.673Z,7.05078125
2022-11-19T06:43:54.268Z,7.070922852
2022-11-19T06:44:54.824Z,7.05078125
2022-11-19T06:45:56.159Z,7.070922852
2022-11-19T06:46:56.726Z,7.070922852
2022-11-19T06:47:57.310Z,7.070922852
2022-11-19T06:48:58.005Z,7.080993652
2022-11-19T06:49:58.399Z,7.091064453
2022-11-19T06:50:58.926Z,7.111206055
2022-11-19T06:51:59.501Z,7.091064453
2022-11-19T06:53:00.102Z,7.091064453
2022-11-19T06:54:00.604Z,7.080993652
2022-11-19T06:55:01.167Z,7.091064453
2022-11-19T06:56:02.648Z,7.091064453
2022-11-19T06:57:03.282Z,7.151489258
2022-11-19T06:58:34.295Z,7.141418457
2022-11-19T06:59:35.556Z,7.111206055
2022-11-19T07:00:36.058Z,7.111206055
2022-11-19T07:01:36.707Z,7.121276855
2022-11-19T07:02:37.163Z,7.121276855
2022-11-19T07:03:37.663Z,7.141418457
2022-11-19T07:04:39.196Z,7.091064453
2022-11-19T07:05:39.743Z,7.070922852
2022-11-19T07:06:40.903Z,7.05078125
2022-11-19T07:07:41.512Z,7.05078125
2022-11-19T07:08:41.919Z,7.040710449
2022-11-19T07:09:43.436Z,7.040710449
2022-11-19T07:10:43.912Z,7.040710449
2022-11-19T07:11:44.448Z,7.040710449
2022-11-19T07:12:45.057Z,7.040710449
2022-11-19T07:13:45.656Z,7.010498047
2022-11-19T07:14:46.249Z,7.040710449
2022-11-19T07:15:46.733Z,7.040710449
2022-11-19T07:16:47.952Z,7.080993652
2022-11-19T07:17:48.498Z,7.091064453
2022-11-19T07:18:49.058Z,7.121276855
2022-11-19T07:19:49.607Z,7.151489258
2022-11-19T07:20:50.097Z,7.161560059
2022-11-19T07:21:50.624Z,7.161560059
2022-11-19T07:22:53.695Z,7.211914063
2022-11-19T07:23:51.707Z,7.242126465
2022-11-19T07:24:52.487Z,7.232055664
2022-11-19T07:25:53.257Z,7.232055664
2022-11-19T07:26:54.438Z,7.211914063
2022-11-19T07:27:54.931Z,7.211914063
2022-11-19T07:28:56.297Z,7.191772461
2022-11-19T07:29:56.052Z,7.191772461
2022-11-19T07:30:56.644Z,7.191772461
2022-11-19T07:31:57.293Z,7.191772461
2022-11-19T07:32:57.862Z,7.211914063
2022-11-19T07:33:58.430Z,7.211914063
2022-11-19T07:34:59.051Z,7.242126465
2022-11-19T07:35:59.602Z,7.262268066
2022-11-19T07:37:00.935Z,7.262268066
2022-11-19T07:38:01.500Z,7.242126465
2022-11-19T07:39:02.028Z,7.211914063
2022-11-19T07:40:02.601Z,7.18170166
2022-11-19T07:41:03.475Z,7.141418457
2022-11-19T07:42:34.241Z,7.121276855
2022-11-19T07:43:34.782Z,7.121276855
2022-11-19T07:44:35.330Z,7.141418457
2022-11-19T07:45:36.009Z,7.151489258
2022-11-19T07:46:37.391Z,7.18170166
2022-11-19T07:47:38.972Z,7.211914063
2022-11-19T07:48:39.515Z,7.262268066
2022-11-19T07:49:40.099Z,7.272338867
2022-11-19T07:50:40.742Z,7.322692871
2022-11-19T07:51:41.099Z,7.332763672
2022-11-19T07:52:41.597Z,7.362976074
2022-11-19T07:53:42.100Z,7.413330078
2022-11-19T07:54:42.706Z,7.44354248
2022-11-19T07:55:43.209Z,7.473754883
2022-11-19T07:56:44.459Z,7.503967285
2022-11-19T07:57:44.988Z,7.544250488
2022-11-19T07:58:46.209Z,7.574462891
2022-11-19T07:59:46.749Z,7.624816895
2022-11-19T08:00:47.327Z,7.665100098
2022-11-19T08:01:47.888Z,7.685241699
2022-11-19T08:02:48.363Z,7.705383301
2022-11-19T08:03:53.452Z,7.755737305
2022-11-19T08:04:49.409Z,7.755737305
2022-11-19T08:05:49.902Z,7.765808105
2022-11-19T08:06:50.967Z,7.765808105
2022-11-19T08:07:51.493Z,7.785949707
2022-11-19T08:08:52.072Z,7.806091309
2022-11-19T08:09:52.881Z,7.836303711
2022-11-19T08:10:53.418Z,7.846374512
2022-11-19T08:11:53.904Z,7.856445313
2022-11-19T08:12:54.424Z,7.856445313
2022-11-19T08:13:55.130Z,7.876586914
2022-11-19T08:14:55.692Z,7.886657715
2022-11-19T08:15:57.162Z,7.856445313
2022-11-19T08:16:58.402Z,7.876586914
2022-11-19T08:17:58.897Z,7.856445313
2022-11-19T08:18:59.416Z,7.876586914
2022-11-19T08:20:00.054Z,7.876586914
2022-11-19T08:21:00.712Z,7.906799316
2022-11-19T08:22:01.356Z,7.937011719
2022-11-19T08:23:01.927Z,7.906799316
2022-11-19T08:24:02.924Z,7.856445313
2022-11-19T08:25:33.752Z,7.856445313
2022-11-19T08:26:35.154Z,7.846374512
2022-11-19T08:27:35.726Z,7.846374512
2022-11-19T08:28:36.372Z,7.856445313
2022-11-19T08:29:36.934Z,7.836303711
2022-11-19T08:30:37.511Z,7.816162109
2022-11-19T08:31:38.129Z,7.816162109
2022-11-19T08:32:38.682Z,7.755737305
2022-11-19T08:33:39.287Z,7.725524902
2022-11-19T08:34:39.868Z,7.6953125
2022-11-19T08:35:40.404Z,7.655029297
2022-11-19T08:36:41.668Z,7.624816895
2022-11-19T08:37:42.321Z,7.604675293
2022-11-19T08:38:42.893Z,7.584533691
2022-11-19T08:39:43.502Z,7.584533691
2022-11-19T08:40:44.037Z,7.574462891
2022-11-19T08:41:44.578Z,7.544250488
2022-11-19T08:42:45.980Z,7.524108887
2022-11-19T08:43:46.692Z,7.524108887
2022-11-19T08:44:47.479Z,7.544250488
2022-11-19T08:45:48.629Z,7.544250488
2022-11-19T08:46:50.165Z,7.544250488
2022-11-19T08:47:50.783Z,7.544250488
2022-11-19T08:48:51.371Z,7.544250488
2022-11-19T08:49:51.988Z,7.544250488
2022-11-19T08:50:52.696Z,7.574462891
2022-11-19T08:51:53.336Z,7.584533691
2022-11-19T08:52:53.865Z,7.634887695
2022-11-19T08:53:54.358Z,7.665100098
2022-11-19T08:54:55.090Z,7.665100098
2022-11-19T08:55:55.758Z,7.705383301
2022-11-19T08:56:57.236Z,7.755737305
2022-11-19T08:57:57.777Z,7.785949707
2022-11-19T08:59:02.499Z,7.816162109
2022-11-19T09:00:05.674Z,7.836303711
2022-11-19T09:01:00.130Z,7.846374512
2022-11-19T09:02:00.595Z,7.876586914
2022-11-19T09:03:01.153Z,7.906799316
2022-11-19T09:04:01.739Z,7.987365723
2022-11-19T09:05:33.003Z,8.027648926
2022-11-19T09:06:33.662Z,8.067932129
2022-11-19T09:07:35.105Z,8.08807373
2022-11-19T09:08:35.638Z,8.118286133
2022-11-19T09:09:36.323Z,8.128356934
2022-11-19T09:10:36.890Z,8.128356934
2022-11-19T09:11:42.476Z,8.178710938
2022-11-19T09:12:38.254Z,8.198852539
2022-11-19T09:13:38.867Z,8.20892334
2022-11-19T09:14:39.635Z,8.218994141
2022-11-19T09:15:40.152Z,8.20892334
2022-11-19T09:16:40.702Z,8.20892334
2022-11-19T09:17:46.598Z,8.20892334
2022-11-19T09:18:42.785Z,8.218994141
2022-11-19T09:19:43.525Z,8.239135742
2022-11-19T09:20:44.089Z,8.239135742
2022-11-19T09:21:44.696Z,8.218994141
2022-11-19T09:22:45.474Z,8.218994141
2022-11-19T09:23:46.684Z,8.218994141
2022-11-19T09:24:47.492Z,8.218994141
2022-11-19T09:25:47.993Z,8.249206543
2022-11-19T09:26:52.603Z,8.289489746
2022-11-19T09:27:49.741Z,8.319702148
2022-11-19T09:28:50.469Z,8.309631348
2022-11-19T09:29:51.241Z,8.309631348
2022-11-19T09:30:51.876Z,8.319702148
2022-11-19T09:31:52.613Z,8.33984375
2022-11-19T09:32:53.188Z,8.359985352
2022-11-19T09:33:53.756Z,8.33984375
2022-11-19T09:34:54.448Z,8.370056152
2022-11-19T09:35:55.057Z,8.400268555
2022-11-19T09:36:56.637Z,8.420410156
2022-11-19T09:37:57.291Z,8.450622559
2022-11-19T09:38:57.910Z,8.500976563
2022-11-19T09:39:58.467Z,8.541259766
2022-11-19T09:40:59.130Z,8.571472168
2022-11-19T09:41:59.792Z,8.571472168
2022-11-19T09:43:00.436Z,8.581542969
2022-11-19T09:44:00.989Z,8.571472168
2022-11-19T09:45:02.071Z,8.611755371
2022-11-19T09:46:34.073Z,8.611755371
2022-11-19T09:47:35.397Z,8.641967773
2022-11-19T09:48:36.095Z,8.672180176
2022-11-19T09:49:36.769Z,8.702392578
2022-11-19T09:50:37.367Z,8.73260498
2022-11-19T09:51:37.968Z,8.752746582
2022-11-19T09:52:38.690Z,8.793029785
2022-11-19T09:53:39.500Z,8.803100586
2022-11-19T09:54:40.013Z,8.863525391
2022-11-19T09:55:40.692Z,8.883666992
2022-11-19T09:56:41.219Z,8.934020996
2022-11-19T09:57:42.472Z,8.944091797
2022-11-19T09:58:43.139Z,8.974304199
2022-11-19T09:59:43.738Z,9.004516602
2022-11-19T10:00:44.334Z,9.034729004
2022-11-19T10:01:44.980Z,9.075012207
2022-11-19T10:02:45.534Z,9.095153809
2022-11-19T10:03:46.111Z,9.095153809
2022-11-19T10:04:46.775Z,9.125366211
2022-11-19T10:05:48.149Z,9.125366211
2022-11-19T10:06:48.692Z,9.125366211
2022-11-19T10:07:49.899Z,9.11529541
2022-11-19T10:08:50.486Z,9.145507813
2022-11-19T10:09:51.172Z,9.125366211
2022-11-19T10:10:51.760Z,9.125366211
2022-11-19T10:11:52.635Z,9.145507813
2022-11-19T10:12:53.229Z,9.145507813
2022-11-19T10:13:53.932Z,9.145507813
2022-11-19T10:14:54.534Z,9.145507813
2022-11-19T10:15:55.154Z,9.145507813
2022-11-19T10:16:55.720Z,9.145507813
2022-11-19T10:17:57.106Z,9.155578613
2022-11-19T10:18:58.066Z,9.165649414
2022-11-19T10:19:58.382Z,9.216003418
2022-11-19T10:21:00.080Z,9.23614502
2022-11-19T10:21:59.730Z,9.296569824
2022-11-19T10:23:00.263Z,9.316711426
2022-11-19T10:24:00.944Z,9.36706543
2022-11-19T10:25:31.930Z,9.37713623
2022-11-19T10:26:33.136Z,9.37713623
2022-11-19T10:27:33.748Z,9.407348633
2022-11-19T10:28:35.194Z,9.437561035
2022-11-19T10:29:35.862Z,9.487915039
2022-11-19T10:30:36.513Z,9.49798584
2022-11-19T10:31:37.174Z,9.558410645
2022-11-19T10:32:37.856Z,9.588623047
2022-11-19T10:33:38.510Z,9.618835449
2022-11-19T10:34:39.263Z,9.669189453
2022-11-19T10:35:39.959Z,9.699401855
2022-11-19T10:36:41.168Z,9.729614258
2022-11-19T10:37:42.667Z,9.769897461
2022-11-19T10:38:47.242Z,9.800109863
2022-11-19T10:39:43.865Z,9.850463867
2022-11-19T10:40:44.361Z,9.88067627
2022-11-19T10:41:44.956Z,9.920959473
2022-11-19T10:42:45.566Z,9.931030273
2022-11-19T10:43:46.201Z,9.961242676
2022-11-19T10:44:46.805Z,9.981384277
2022-11-19T10:45:47.392Z,9.981384277
2022-11-19T10:46:48.064Z,9.991455078
2022-11-19T10:47:49.522Z,9.991455078
2022-11-19T10:48:50.117Z,10.01159668
2022-11-19T10:49:50.835Z,10.01159668
2022-11-19T10:50:51.383Z,10.01159668
2022-11-19T10:51:52.059Z,9.991455078
2022-11-19T10:52:53.021Z,9.981384277
2022-11-19T10:53:53.611Z,9.961242676
2022-11-19T10:54:54.237Z,9.951171875
2022-11-19T10:55:55.107Z,9.951171875
2022-11-19T10:56:55.894Z,9.951171875
2022-11-19T10:57:56.460Z,9.89074707
2022-11-19T10:58:58.176Z,9.920959473
2022-11-19T10:59:58.759Z,9.920959473
2022-11-19T11:00:59.438Z,9.931030273
2022-11-19T11:02:00.085Z,9.931030273
2022-11-19T11:03:01.075Z,9.981384277
2022-11-19T11:04:31.942Z,10.01159668
2022-11-19T11:05:32.530Z,10.01159668